METAR Reports - Misc

 

KGRB - Green Bay, Wisconsin, USA
Updated: 09/23/2021 7:53am
Clear
Clear
 Wind from NNW
Wind: NNW 9 mph , 15 km/h
Temperature: 46°F , 8°C
Wind Chill: 41°F , 5°C
Dew Point: 39°F , 4°C
Humidity: 76%
Barometer: 30.03 inHg , 1016.9 hPa
Clouds: Clear
Visibility: 10 miles , 16 km
2021/09/23 11:53 KGRB 231153Z 33008KT 10SM CLR 08/04 A3003 RMK AO2 SLP171 T00830039 10106 20083 58002
KMCD - Mackinac Island, Michigan, USA
Updated: 09/23/2021 8:35am
Overcast
Overcast
 Wind from N
Wind: N 15 mph , 24 km/h, Gust: 30 mph , 48 km/h
Temperature: 46°F , 8°C
Wind Chill: 40°F , 4°C
Dew Point: 36°F , 2°C
Humidity: 66%
Barometer: 29.89 inHg , 1012.2 hPa
Clouds: Overcast
Visibility: 10 miles , 16 km
Cloud details: Overcast 11000 ft
2021/09/23 12:35 KMCD 231235Z AUTO 01013G26KT 10SM OVC110 08/02 A2989 RMK AO2 T00780024
 
K06C - Schaumburg, Illinois, USA
Updated: 09/23/2021 8:35am

 Wind from NW
Wind: NW 5 mph , 7 km/h
Barometer: 29.99 inHg , 1015.6 hPa
2021/09/23 12:35 K06C 231235Z AUTO 31004KT A2999 RMK AO2
KCLE - Cleveland, OH, USA
Updated: 09/23/2021 8:18am
Mostly cloudy
Mostly cloudy
 Wind from SSW
Wind: SSW 13 mph , 20 km/h
Temperature: 52°F , 11°C
Dew Point: 45°F , 7°C
Humidity: 77%
Barometer: 29.71 inHg , 1006.1 hPa
Clouds: Mostly cloudy
Visibility: 10 miles , 16 km
Cloud details: Few Clouds 1500 ft
Mostly cloudy 3100 ft
2021/09/23 12:18 KCLE 231218Z 20011KT 10SM FEW015 BKN031 11/07 A2971 RMK AO2 T01060072
 
KMMU - Morristown, New Jersey, USA
Updated: 09/23/2021 8:45am
Overcast
Overcast
 Wind from SSE
Wind: SSE 16 mph , 26 km/h, Gust: 26 mph , 43 km/h
Temperature: 75°F , 24°C
Dew Point: 72°F , 22°C
Humidity: 89%
Barometer: 29.93 inHg , 1013.5 hPa
Clouds: Overcast
Visibility: 7 miles , 11 km
Cloud details: Mostly cloudy 1600 ft
Overcast 2300 ft
2021/09/23 12:45 KMMU 231245Z 16014G23KT 7SM BKN016 OVC023 24/22 A2993
KSDF - Louisville, Kentucky, USA
Updated: 09/23/2021 7:56am
Few Clouds
Few Clouds
 Wind from WSW
Wind: WSW 6 mph , 9 km/h
Temperature: 52°F , 11°C
Dew Point: 48°F , 9°C
Humidity: 88%
Barometer: 30.00 inHg , 1015.9 hPa
Clouds: Few Clouds
Visibility: 10 miles , 16 km
Cloud details: Few Clouds 25000 ft
2021/09/23 11:56 KSDF 231156Z 25005KT 10SM FEW250 11/09 A3000 RMK AO2 SLP159 70060 T01110089 10139 20106 53008